地図

経路データ

SID SEASON NUMBER BASIN SUBBASIN NAME ISO_TIME NATURE LAT LON WMO_WIND WMO_PRES WMO_AGENCY TRACK_TYPE DIST2LAND LANDFALL IFLAG USA_AGENCY USA_ATCF_ID USA_LAT USA_LON USA_RECORD USA_STATUS USA_WIND USA_PRES USA_SSHS USA_R34_NE USA_R34_SE USA_R34_SW USA_R34_NW USA_R50_NE USA_R50_SE USA_R50_SW USA_R50_NW USA_R64_NE USA_R64_SE USA_R64_SW USA_R64_NW USA_POCI USA_ROCI USA_RMW USA_EYE TOKYO_LAT TOKYO_LON TOKYO_GRADE TOKYO_WIND TOKYO_PRES TOKYO_R50_DIR TOKYO_R50_LONG TOKYO_R50_SHORT TOKYO_R30_DIR TOKYO_R30_LONG TOKYO_R30_SHORT TOKYO_LAND CMA_LAT CMA_LON CMA_CAT CMA_WIND CMA_PRES HKO_LAT HKO_LON HKO_CAT HKO_WIND HKO_PRES NEWDELHI_LAT NEWDELHI_LON NEWDELHI_GRADE NEWDELHI_WIND NEWDELHI_PRES NEWDELHI_CI NEWDELHI_DP NEWDELHI_POCI REUNION_LAT REUNION_LON REUNION_TYPE REUNION_WIND REUNION_PRES REUNION_TNUM REUNION_CI REUNION_RMW REUNION_R34_NE REUNION_R34_SE REUNION_R34_SW REUNION_R34_NW REUNION_R50_NE REUNION_R50_SE REUNION_R50_SW REUNION_R50_NW REUNION_R64_NE REUNION_R64_SE REUNION_R64_SW REUNION_R64_NW BOM_LAT BOM_LON BOM_TYPE BOM_WIND BOM_PRES BOM_TNUM BOM_CI BOM_RMW BOM_R34_NE BOM_R34_SE BOM_R34_SW BOM_R34_NW BOM_R50_NE BOM_R50_SE BOM_R50_SW BOM_R50_NW BOM_R64_NE BOM_R64_SE BOM_R64_SW BOM_R64_NW BOM_ROCI BOM_POCI BOM_EYE BOM_POS_METHOD BOM_PRES_METHOD NADI_LAT NADI_LON NADI_CAT NADI_WIND NADI_PRES WELLINGTON_LAT WELLINGTON_LON WELLINGTON_WIND WELLINGTON_PRES DS824_LAT DS824_LON DS824_STAGE DS824_WIND DS824_PRES TD9636_LAT TD9636_LON TD9636_STAGE TD9636_WIND TD9636_PRES TD9635_LAT TD9635_LON TD9635_WIND TD9635_PRES TD9635_ROCI NEUMANN_LAT NEUMANN_LON NEUMANN_CLASS NEUMANN_WIND NEUMANN_PRES MLC_LAT MLC_LON MLC_CLASS MLC_WIND MLC_PRES USA_GUST BOM_GUST BOM_GUST_PER REUNION_GUST REUNION_GUST_PER USA_SEAHGT USA_SEARAD_NE USA_SEARAD_SE USA_SEARAD_SW USA_SEARAD_NW STORM_SPEED STORM_DIR
1883165N21087 1883 14 NI BB NOT_NAMED 1883-06-14 00:00:00 TS 21.3000 87.3000 main 30 0 _________O____ -1 21.3000 87.3000 TC 30 5 322
1883165N21087 1883 14 NI BB NOT_NAMED 1883-06-14 03:00:00 TS 21.5001 87.1335 main 0 0 _________PO___ -1 21.6001 87.0502 TC 30 21.3000 87.3000 1 6 322
1883165N21087 1883 14 NI BB NOT_NAMED 1883-06-14 06:00:00 TS 21.7725 86.9057 main 0 0 _________OP___ -1 21.9000 86.8000 TC 30 21.5814 87.0642 1 7 322
1883165N21087 1883 14 NI BB NOT_NAMED 1883-06-14 09:00:00 TS 22.0586 86.6667 main 0 0 _________PP___ -1 22.2000 86.5499 TC 30 21.8701 86.8224 1 7 322
1883165N21087 1883 14 NI BB NOT_NAMED 1883-06-14 12:00:00 TS 22.3369 86.4347 main 0 0 _________OP___ -1 22.5000 86.3000 TC 30 22.1737 86.5695 1 7 322
1883165N21087 1883 14 NI BB NOT_NAMED 1883-06-14 15:00:00 TS 22.6462 86.1749 main 0 0 _________PO___ -1 22.7925 86.0499 TC 30 22.5000 86.3000 1 8 323
1883165N21087 1883 14 NI BB NOT_NAMED 1883-06-14 18:00:00 TS 22.9752 85.9070 main 0 0 _________OP___ -1 23.1000 85.8000 TC 30 22.8505 86.0140 1 9 324
1883165N21087 1883 14 NI BB NOT_NAMED 1883-06-14 21:00:00 TS 23.3414 85.6268 main 0 0 _________PP___ -1 23.4801 85.5202 TC 30 23.2028 85.7334 1 8 326
1883165N21087 1883 14 NI BB NOT_NAMED 1883-06-15 00:00:00 TS 23.6643 85.3930 main 0 0 _________OP___ -1 23.8000 85.3000 TC 30 23.5286 85.4859 1 6 327
1883165N21087 1883 14 NI BB NOT_NAMED 1883-06-15 03:00:00 TS 23.8650 85.2561 main 0 0 _________PO___ -1 23.9299 85.2123 TC 30 23.8000 85.3000 1 4 332
1883165N21087 1883 14 NI BB NOT_NAMED 1883-06-15 06:00:00 TS 23.9931 85.2027 main 0 0 _________OP___ -1 24.0000 85.2000 TC 30 23.9863 85.2055 1 3 346
1883165N21087 1883 14 NI BB NOT_NAMED 1883-06-15 09:00:00 TS 24.1336 85.1833 main 0 0 _________PP___ -1 24.1500 85.1925 TC 30 24.1172 85.1741 1 3 354
1883165N21087 1883 14 NI BB NOT_NAMED 1883-06-15 12:00:00 TS 24.2573 85.1904 main 0 0 _________OP___ -1 24.3000 85.2000 TC 30 24.2145 85.1808 1 2 2
1883165N21087 1883 14 NI BB NOT_NAMED 1883-06-15 15:00:00 TS 24.3537 85.2000 main 0 0 _________PO___ -1 24.4075 85.2000 TC 30 24.3000 85.2000 1 2 7
1883165N21087 1883 14 NI BB NOT_NAMED 1883-06-15 18:00:00 TS 24.4495 85.1924 main 0 0 _________OP___ -1 24.5000 85.2000 TC 30 24.3991 85.1847 1 2 354
1883165N21087 1883 14 NI BB NOT_NAMED 1883-06-15 21:00:00 TS 24.5425 85.1850 main 0 0 _________PP___ -1 24.5925 85.1925 TC 30 24.4925 85.1776 1 2 0
1883165N21087 1883 14 NI BB NOT_NAMED 1883-06-16 00:00:00 TS 24.6448 85.1908 main 0 0 _________OP___ -1 24.7000 85.2000 TC 30 24.5897 85.1816 1 2 7
1883165N21087 1883 14 NI BB NOT_NAMED 1883-06-16 03:00:00 TS 24.7713 85.2212 main 0 0 _________PO___ -1 24.8425 85.2425 TC 30 24.7000 85.2000 1 3 13
1883165N21087 1883 14 NI BB NOT_NAMED 1883-06-16 06:00:00 TS 24.9198 85.2617 main 0 0 _________OP___ -1 25.0000 85.3000 TC 30 24.8397 85.2235 1 3 12
1883165N21087 1883 14 NI BB NOT_NAMED 1883-06-16 09:00:00 TS 25.0712 85.3026 main 0 0 _________PP___ -1 25.1500 85.3425 TC 30 24.9924 85.2626 1 3 16
1883165N21087 1883 14 NI BB NOT_NAMED 1883-06-16 12:00:00 TS 25.2245 85.3602 main 0 0 _________OP___ -1 25.3000 85.4000 TC 30 25.1490 85.3204 1 3 22
1883165N21087 1883 14 NI BB NOT_NAMED 1883-06-16 15:00:00 TS 25.3787 85.4425 main 0 0 _________PO___ -1 25.4575 85.4850 TC 30 25.3000 85.4000 1 3 31
1883165N21087 1883 14 NI BB NOT_NAMED 1883-06-16 18:00:00 TS 25.5120 85.5497 main 0 0 _________OP___ -1 25.6000 85.6000 TC 30 25.4241 85.4995 1 3 42
1883165N21087 1883 14 NI BB NOT_NAMED 1883-06-16 21:00:00 TS 25.6175 85.6814 main 0 0 _________PP___ -1 25.6925 85.7426 TC 30 25.5425 85.6202 1 3 49
1883165N21087 1883 14 NI BB NOT_NAMED 1883-06-17 00:00:00 TS 25.7323 85.8279 main 0 0 _________OP___ -1 25.8000 85.9000 TC 30 25.6647 85.7558 1 4 44
1883165N21087 1883 14 NI BB NOT_NAMED 1883-06-17 03:00:00 TS 25.8962 85.9750 main 0 0 _________PO___ -1 25.9925 86.0500 TC 30 25.8000 85.9000 1 4 36
1883165N21087 1883 14 NI BB NOT_NAMED 1883-06-17 06:00:00 TS 26.0924 86.1132 main 0 0 _________OP___ -1 26.2000 86.2000 TC 30 25.9848 86.0264 1 5 33
1883165N21087 1883 14 NI BB NOT_NAMED 1883-06-17 09:00:00 TS 26.2723 86.2487 main 0 0 _________PP___ -1 26.3649 86.3351 TC 30 26.1798 86.1623 1 4 38
1883165N21087 1883 14 NI BB NOT_NAMED 1883-06-17 12:00:00 TS 26.4299 86.4085 main 0 0 _________OP___ -1 26.5000 86.5000 TC 30 26.3598 86.3170 1 4 49
1883165N21087 1883 14 NI BB NOT_NAMED 1883-06-17 15:00:00 TS 26.5650 86.6174 main 0 0 _________PO___ -1 26.6300 86.7349 TC 30 26.5000 86.5000 1 4 62
1883165N21087 1883 14 NI BB NOT_NAMED 1883-06-17 18:00:00 TS 26.6327 86.8385 main 0 0 _________OP___ -1 26.7000 87.0000 TC 30 26.5822 86.7174 1 4 80
1883165N21087 1883 14 NI BB NOT_NAMED 1883-06-17 21:00:00 TS 26.6404 87.0798 main 0 0 _________PP___ -1 26.6775 87.2552 TC 30 26.6156 86.9629 1 4 93
1883165N21087 1883 14 NI BB NOT_NAMED 1883-06-18 00:00:00 TS 26.6108 87.3179 main 0 0 _________OP___ -1 26.6000 87.5000 TC 30 26.6161 87.2269 1 4 96
1883165N21087 1883 14 NI BB NOT_NAMED 1883-06-18 03:00:00 NR 26.6000 87.5000 main 0 __________O___ -1 TC 26.6000 87.5000 1 3 94

IBTrACS Databaseについて

本データベースは、米国NOAAが公開する1842年以降の世界の熱帯低気圧のベストトラックデータアーカイブInternational Best Track Archive for Climate Stewardship (IBTrACS)を、ウェブで閲覧しやすい形式に変換したものです。

最終更新日:2021-12-08